sensor_id;sensor_type;location;lat;lon;timestamp;pressure;altitude;pressure_sealevel;temperature;humidity
11349;BME280;5729;43.570;27.826;2023-07-02T00:00:19;98350.88;;;21.65;100.00
11349;BME280;5729;43.570;27.826;2023-07-02T00:02:45;98345.41;;;21.65;100.00
11349;BME280;5729;43.570;27.826;2023-07-02T00:05:10;98349.03;;;21.62;100.00
11349;BME280;5729;43.570;27.826;2023-07-02T00:07:36;98346.03;;;21.69;100.00
11349;BME280;5729;43.570;27.826;2023-07-02T00:10:03;98340.53;;;21.69;100.00
11349;BME280;5729;43.570;27.826;2023-07-02T00:12:28;98346.94;;;21.66;100.00
11349;BME280;5729;43.570;27.826;2023-07-02T00:14:54;98332.31;;;21.69;100.00
11349;BME280;5729;43.570;27.826;2023-07-02T00:17:20;98308.94;;;21.55;100.00
11349;BME280;5729;43.570;27.826;2023-07-02T00:19:45;98330.97;;;21.73;100.00
11349;BME280;5729;43.570;27.826;2023-07-02T00:22:12;98332.63;;;21.71;100.00
11349;BME280;5729;43.570;27.826;2023-07-02T00:24:37;98334.94;;;21.72;100.00
11349;BME280;5729;43.570;27.826;2023-07-02T00:27:03;98329.44;;;21.72;100.00
11349;BME280;5729;43.570;27.826;2023-07-02T00:29:29;98325.94;;;21.72;100.00
11349;BME280;5729;43.570;27.826;2023-07-02T00:31:54;98325.63;;;21.70;100.00
11349;BME280;5729;43.570;27.826;2023-07-02T00:34:20;98323.97;;;21.72;100.00
11349;BME280;5729;43.570;27.826;2023-07-02T00:36:45;98323.97;;;21.72;100.00
11349;BME280;5729;43.570;27.826;2023-07-02T00:39:11;98288.38;;;21.60;100.00
11349;BME280;5729;43.570;27.826;2023-07-02T00:41:41;98311.47;;;21.71;100.00
11349;BME280;5729;43.570;27.826;2023-07-02T00:44:08;98311.00;;;21.73;100.00
11349;BME280;5729;43.570;27.826;2023-07-02T00:46:35;98291.91;;;21.60;100.00
11349;BME280;5729;43.570;27.826;2023-07-02T00:49:02;98301.44;;;21.78;100.00
11349;BME280;5729;43.570;27.826;2023-07-02T00:51:29;98307.69;;;21.78;100.00
11349;BME280;5729;43.570;27.826;2023-07-02T00:53:57;98307.53;;;21.82;100.00
11349;BME280;5729;43.570;27.826;2023-07-02T00:56:25;98290.75;;;21.80;100.00
11349;BME280;5729;43.570;27.826;2023-07-02T00:58:54;98292.28;;;21.81;100.00
11349;BME280;5729;43.570;27.826;2023-07-02T01:01:21;98295.00;;;21.71;100.00
11349;BME280;5729;43.570;27.826;2023-07-02T01:04:02;98293.03;;;21.72;100.00
11349;BME280;5729;43.570;27.826;2023-07-02T01:06:31;98297.09;;;21.67;100.00
11349;BME280;5729;43.570;27.826;2023-07-02T01:08:59;98295.72;;;21.63;100.00
11349;BME280;5729;43.570;27.826;2023-07-02T01:11:27;98294.31;;;21.58;100.00
11349;BME280;5729;43.570;27.826;2023-07-02T01:13:56;98294.97;;;21.62;100.00
11349;BME280;5729;43.570;27.826;2023-07-02T01:16:24;98289.91;;;21.61;100.00
11349;BME280;5729;43.570;27.826;2023-07-02T01:18:51;98290.13;;;21.66;100.00
11349;BME280;5729;43.570;27.826;2023-07-02T01:21:20;98281.69;;;21.61;100.00
11349;BME280;5729;43.570;27.826;2023-07-02T01:23:46;98290.56;;;21.65;100.00
11349;BME280;5729;43.570;27.826;2023-07-02T01:26:12;98279.16;;;21.66;100.00
11349;BME280;5729;43.570;27.826;2023-07-02T01:28:37;98278.06;;;21.64;100.00
11349;BME280;5729;43.570;27.826;2023-07-02T01:31:04;98260.63;;;21.49;100.00
11349;BME280;5729;43.570;27.826;2023-07-02T01:33:31;98286.28;;;21.64;100.00
11349;BME280;5729;43.570;27.826;2023-07-02T01:35:57;98292.38;;;21.68;100.00
11349;BME280;5729;43.570;27.826;2023-07-02T01:38:22;98288.25;;;21.63;100.00
11349;BME280;5729;43.570;27.826;2023-07-02T01:40:48;98284.06;;;21.50;100.00
11349;BME280;5729;43.570;27.826;2023-07-02T01:43:13;98289.25;;;21.48;100.00
11349;BME280;5729;43.570;27.826;2023-07-02T01:45:41;98308.25;;;21.42;100.00
11349;BME280;5729;43.570;27.826;2023-07-02T01:48:07;98310.28;;;21.51;100.00
11349;BME280;5729;43.570;27.826;2023-07-02T01:50:32;98303.13;;;21.53;100.00
11349;BME280;5729;43.570;27.826;2023-07-02T01:52:58;98301.16;;;21.54;100.00
11349;BME280;5729;43.570;27.826;2023-07-02T01:55:24;98293.19;;;21.47;100.00
11349;BME280;5729;43.570;27.826;2023-07-02T01:57:49;98297.03;;;21.49;100.00
11349;BME280;5729;43.570;27.826;2023-07-02T02:00:15;98298.88;;;21.52;100.00
11349;BME280;5729;43.570;27.826;2023-07-02T02:02:42;98290.66;;;21.52;100.00
11349;BME280;5729;43.570;27.826;2023-07-02T02:05:07;98262.88;;;21.41;100.00
11349;BME280;5729;43.570;27.826;2023-07-02T02:07:34;98284.56;;;21.57;100.00
11349;BME280;5729;43.570;27.826;2023-07-02T02:10:01;98279.41;;;21.59;100.00
11349;BME280;5729;43.570;27.826;2023-07-02T02:12:27;98281.69;;;21.61;100.00
11349;BME280;5729;43.570;27.826;2023-07-02T02:14:53;98277.75;;;21.62;100.00
11349;BME280;5729;43.570;27.826;2023-07-02T02:17:19;98275.91;;;21.59;100.00
11349;BME280;5729;43.570;27.826;2023-07-02T02:19:44;98268.13;;;21.57;100.00
11349;BME280;5729;43.570;27.826;2023-07-02T02:22:10;98272.38;;;21.58;100.00
11349;BME280;5729;43.570;27.826;2023-07-02T02:24:35;98273.78;;;21.63;100.00
11349;BME280;5729;43.570;27.826;2023-07-02T02:27:01;98271.81;;;21.63;100.00
11349;BME280;5729;43.570;27.826;2023-07-02T02:29:26;98271.06;;;21.63;100.00
11349;BME280;5729;43.570;27.826;2023-07-02T02:31:52;98276.09;;;21.64;100.00
11349;BME280;5729;43.570;27.826;2023-07-02T02:34:17;98277.31;;;21.63;100.00
11349;BME280;5729;43.570;27.826;2023-07-02T02:36:42;98278.84;;;21.64;100.00
11349;BME280;5729;43.570;27.826;2023-07-02T02:39:08;98276.53;;;21.63;100.00
11349;BME280;5729;43.570;27.826;2023-07-02T02:41:34;98271.19;;;21.59;100.00
11349;BME280;5729;43.570;27.826;2023-07-02T02:43:59;98278.03;;;21.55;100.00
11349;BME280;5729;43.570;27.826;2023-07-02T02:46:25;98279.22;;;21.54;100.00
11349;BME280;5729;43.570;27.826;2023-07-02T02:48:50;98284.41;;;21.52;100.00
11349;BME280;5729;43.570;27.826;2023-07-02T02:51:16;98285.28;;;21.49;100.00
11349;BME280;5729;43.570;27.826;2023-07-02T02:53:42;98282.88;;;21.51;100.00
11349;BME280;5729;43.570;27.826;2023-07-02T02:56:07;98288.66;;;21.53;100.00
11349;BME280;5729;43.570;27.826;2023-07-02T02:58:33;98280.25;;;21.47;100.00
11349;BME280;5729;43.570;27.826;2023-07-02T03:00:58;98292.31;;;21.50;100.00
11349;BME280;5729;43.570;27.826;2023-07-02T03:03:24;98282.09;;;21.50;100.00
11349;BME280;5729;43.570;27.826;2023-07-02T03:05:50;98282.88;;;21.51;100.00
11349;BME280;5729;43.570;27.826;2023-07-02T03:08:16;98289.88;;;21.52;100.00
11349;BME280;5729;43.570;27.826;2023-07-02T03:10:41;98297.34;;;21.51;100.00
11349;BME280;5729;43.570;27.826;2023-07-02T03:13:07;98298.09;;;21.52;100.00
11349;BME280;5729;43.570;27.826;2023-07-02T03:15:32;98298.44;;;21.54;100.00
11349;BME280;5729;43.570;27.826;2023-07-02T03:17:58;98295.41;;;21.61;100.00
11349;BME280;5729;43.570;27.826;2023-07-02T03:20:23;98299.81;;;21.58;100.00
11349;BME280;5729;43.570;27.826;2023-07-02T03:22:49;98308.78;;;21.59;100.00
11349;BME280;5729;43.570;27.826;2023-07-02T03:25:15;98282.41;;;21.52;100.00
11349;BME280;5729;43.570;27.826;2023-07-02T03:27:40;98309.00;;;21.64;100.00
11349;BME280;5729;43.570;27.826;2023-07-02T03:30:06;98306.09;;;21.68;100.00
11349;BME280;5729;43.570;27.826;2023-07-02T03:32:32;98301.56;;;21.74;100.00
11349;BME280;5729;43.570;27.826;2023-07-02T03:34:57;98301.13;;;21.76;100.00
11349;BME280;5729;43.570;27.826;2023-07-02T03:37:22;98294.28;;;21.80;100.00
11349;BME280;5729;43.570;27.826;2023-07-02T03:39:48;98286.50;;;21.79;100.00
11349;BME280;5729;43.570;27.826;2023-07-02T03:42:13;98291.44;;;21.93;100.00
11349;BME280;5729;43.570;27.826;2023-07-02T03:44:39;98297.56;;;21.97;100.00
11349;BME280;5729;43.570;27.826;2023-07-02T03:47:05;98292.06;;;21.97;100.00
11349;BME280;5729;43.570;27.826;2023-07-02T03:49:33;98300.53;;;22.12;100.00
11349;BME280;5729;43.570;27.826;2023-07-02T03:51:59;98305.44;;;22.17;100.00
11349;BME280;5729;43.570;27.826;2023-07-02T03:54:24;98297.06;;;22.20;100.00
11349;BME280;5729;43.570;27.826;2023-07-02T03:56:50;98309.88;;;22.23;100.00
11349;BME280;5729;43.570;27.826;2023-07-02T03:59:15;98305.31;;;22.29;100.00
11349;BME280;5729;43.570;27.826;2023-07-02T04:01:41;98299.81;;;22.29;100.00
11349;BME280;5729;43.570;27.826;2023-07-02T04:04:06;98312.97;;;22.43;100.00
11349;BME280;5729;43.570;27.826;2023-07-02T04:06:32;98314.66;;;22.50;100.00
11349;BME280;5729;43.570;27.826;2023-07-02T04:08:59;98318.16;;;22.51;100.00
11349;BME280;5729;43.570;27.826;2023-07-02T04:11:25;98320.94;;;22.60;100.00
11349;BME280;5729;43.570;27.826;2023-07-02T04:13:50;98327.94;;;22.61;100.00
11349;BME280;5729;43.570;27.826;2023-07-02T04:16:15;98325.38;;;22.66;100.00
11349;BME280;5729;43.570;27.826;2023-07-02T04:18:41;98313.31;;;22.73;100.00
11349;BME280;5729;43.570;27.826;2023-07-02T04:21:06;98325.88;;;22.83;100.00
11349;BME280;5729;43.570;27.826;2023-07-02T04:23:32;98322.97;;;22.87;100.00
11349;BME280;5729;43.570;27.826;2023-07-02T04:25:57;98321.00;;;22.87;100.00
11349;BME280;5729;43.570;27.826;2023-07-02T04:28:23;98322.53;;;22.97;100.00
11349;BME280;5729;43.570;27.826;2023-07-02T04:30:48;98324.50;;;23.06;100.00
11349;BME280;5729;43.570;27.826;2023-07-02T04:33:15;98320.53;;;23.16;100.00
11349;BME280;5729;43.570;27.826;2023-07-02T04:35:41;98328.03;;;23.25;100.00
11349;BME280;5729;43.570;27.826;2023-07-02T04:38:06;98325.56;;;23.36;100.00
11349;BME280;5729;43.570;27.826;2023-07-02T04:40:32;98333.50;;;23.43;100.00
11349;BME280;5729;43.570;27.826;2023-07-02T04:42:58;98328.88;;;23.49;100.00
11349;BME280;5729;43.570;27.826;2023-07-02T04:45:25;98324.94;;;23.59;100.00
11349;BME280;5729;43.570;27.826;2023-07-02T04:47:51;98325.06;;;23.65;100.00
11349;BME280;5729;43.570;27.826;2023-07-02T04:50:17;98321.53;;;23.73;100.00
11349;BME280;5729;43.570;27.826;2023-07-02T04:52:43;98323.22;;;23.80;100.00
11349;BME280;5729;43.570;27.826;2023-07-02T04:55:09;98327.50;;;23.81;100.00
11349;BME280;5729;43.570;27.826;2023-07-02T04:57:34;98335.56;;;23.84;100.00
11349;BME280;5729;43.570;27.826;2023-07-02T05:00:00;98328.06;;;23.85;100.00
11349;BME280;5729;43.570;27.826;2023-07-02T05:02:25;98328.78;;;23.95;100.00
11349;BME280;5729;43.570;27.826;2023-07-02T05:04:51;98328.94;;;24.00;100.00
11349;BME280;5729;43.570;27.826;2023-07-02T05:07:16;98329.06;;;24.06;100.00
11349;BME280;5729;43.570;27.826;2023-07-02T05:09:42;98331.66;;;24.09;100.00
11349;BME280;5729;43.570;27.826;2023-07-02T05:12:08;98334.25;;;24.13;100.00
11349;BME280;5729;43.570;27.826;2023-07-02T05:14:34;98336.53;;;24.23;100.00
11349;BME280;5729;43.570;27.826;2023-07-02T05:17:00;98333.25;;;24.34;100.00
11349;BME280;5729;43.570;27.826;2023-07-02T05:19:26;98337.47;;;24.44;100.00
11349;BME280;5729;43.570;27.826;2023-07-02T05:21:51;98345.22;;;24.55;100.00
11349;BME280;5729;43.570;27.826;2023-07-02T05:24:17;98344.22;;;24.67;100.00
11349;BME280;5729;43.570;27.826;2023-07-02T05:26:42;98334.69;;;24.77;100.00
11349;BME280;5729;43.570;27.826;2023-07-02T05:29:08;98339.03;;;24.93;100.00
11349;BME280;5729;43.570;27.826;2023-07-02T05:31:33;98335.31;;;24.96;100.00
11349;BME280;5729;43.570;27.826;2023-07-02T05:34:02;98345.25;;;25.03;100.00
11349;BME280;5729;43.570;27.826;2023-07-02T05:36:27;98335.19;;;25.14;100.00
11349;BME280;5729;43.570;27.826;2023-07-02T05:38:52;98320.53;;;25.08;100.00
11349;BME280;5729;43.570;27.826;2023-07-02T05:41:21;98334.94;;;25.27;100.00
11349;BME280;5729;43.570;27.826;2023-07-02T05:43:47;98342.44;;;25.26;100.00
11349;BME280;5729;43.570;27.826;2023-07-02T05:46:12;98333.69;;;25.28;100.00
11349;BME280;5729;43.570;27.826;2023-07-02T05:48:42;98343.00;;;25.30;100.00
11349;BME280;5729;43.570;27.826;2023-07-02T05:51:08;98332.38;;;25.38;100.00
11349;BME280;5729;43.570;27.826;2023-07-02T05:53:33;98318.19;;;25.30;100.00
11349;BME280;5729;43.570;27.826;2023-07-02T05:55:59;98320.84;;;25.40;100.00
11349;BME280;5729;43.570;27.826;2023-07-02T05:58:24;98326.94;;;25.44;100.00
11349;BME280;5729;43.570;27.826;2023-07-02T06:00:50;98323.81;;;25.51;100.00
11349;BME280;5729;43.570;27.826;2023-07-02T06:03:19;98321.91;;;25.57;100.00
11349;BME280;5729;43.570;27.826;2023-07-02T06:05:47;98328.22;;;25.72;100.00
11349;BME280;5729;43.570;27.826;2023-07-02T06:08:14;98320.13;;;25.68;100.00
11349;BME280;5729;43.570;27.826;2023-07-02T06:10:40;98328.41;;;25.68;100.00
11349;BME280;5729;43.570;27.826;2023-07-02T06:13:05;98324.72;;;25.72;100.00
11349;BME280;5729;43.570;27.826;2023-07-02T06:15:31;98329.66;;;25.67;100.00
11349;BME280;5729;43.570;27.826;2023-07-02T06:17:56;98327.00;;;25.73;100.00
11349;BME280;5729;43.570;27.826;2023-07-02T06:20:22;98331.94;;;25.69;100.00
11349;BME280;5729;43.570;27.826;2023-07-02T06:22:47;98330.69;;;25.70;100.00
11349;BME280;5729;43.570;27.826;2023-07-02T06:25:13;98339.06;;;25.76;100.00
11349;BME280;5729;43.570;27.826;2023-07-02T06:27:38;98325.06;;;25.79;100.00
11349;BME280;5729;43.570;27.826;2023-07-02T06:30:04;98324.03;;;25.77;100.00
11349;BME280;5729;43.570;27.826;2023-07-02T06:32:31;98321.75;;;25.75;100.00
11349;BME280;5729;43.570;27.826;2023-07-02T06:34:56;98323.47;;;25.73;100.00
11349;BME280;5729;43.570;27.826;2023-07-02T06:37:22;98322.72;;;25.72;100.00
11349;BME280;5729;43.570;27.826;2023-07-02T06:39:47;98318.97;;;25.75;100.00
11349;BME280;5729;43.570;27.826;2023-07-02T06:42:13;98321.28;;;25.77;100.00
11349;BME280;5729;43.570;27.826;2023-07-02T06:44:38;98329.06;;;25.78;100.00
11349;BME280;5729;43.570;27.826;2023-07-02T06:47:04;98322.78;;;25.92;100.00
11349;BME280;5729;43.570;27.826;2023-07-02T06:49:29;98322.66;;;26.01;100.00
11349;BME280;5729;43.570;27.826;2023-07-02T06:51:55;98323.25;;;26.06;100.00
11349;BME280;5729;43.570;27.826;2023-07-02T06:54:20;98319.19;;;26.21;100.00
11349;BME280;5729;43.570;27.826;2023-07-02T06:56:45;98320.44;;;26.35;100.00
11349;BME280;5729;43.570;27.826;2023-07-02T06:59:11;98307.53;;;26.47;100.00
11349;BME280;5729;43.570;27.826;2023-07-02T07:01:36;98312.44;;;26.57;100.00
11349;BME280;5729;43.570;27.826;2023-07-02T07:04:02;98319.69;;;26.55;100.00
11349;BME280;5729;43.570;27.826;2023-07-02T07:06:29;98326.34;;;26.63;100.00
11349;BME280;5729;43.570;27.826;2023-07-02T07:08:54;98327.25;;;26.74;100.00
11349;BME280;5729;43.570;27.826;2023-07-02T07:11:19;98322.81;;;26.83;100.00
11349;BME280;5729;43.570;27.826;2023-07-02T07:13:45;98321.72;;;26.95;100.00
11349;BME280;5729;43.570;27.826;2023-07-02T07:16:11;98326.34;;;27.03;100.00
11349;BME280;5729;43.570;27.826;2023-07-02T07:18:37;98324.63;;;27.06;100.00
11349;BME280;5729;43.570;27.826;2023-07-02T07:21:02;98324.94;;;27.14;100.00
11349;BME280;5729;43.570;27.826;2023-07-02T07:23:28;98327.28;;;27.21;100.00
11349;BME280;5729;43.570;27.826;2023-07-02T07:25:53;98325.66;;;27.34;100.00
11349;BME280;5729;43.570;27.826;2023-07-02T07:28:19;98317.53;;;27.51;100.00
11349;BME280;5729;43.570;27.826;2023-07-02T07:30:44;98286.53;;;27.47;100.00
11349;BME280;5729;43.570;27.826;2023-07-02T07:33:10;98301.09;;;27.68;100.00
11349;BME280;5729;43.570;27.826;2023-07-02T07:35:36;98321.94;;;27.95;100.00
11349;BME280;5729;43.570;27.826;2023-07-02T07:38:02;98322.22;;;27.97;100.00
11349;BME280;5729;43.570;27.826;2023-07-02T07:40:27;98314.81;;;27.82;100.00
11349;BME280;5729;43.570;27.826;2023-07-02T07:42:53;98302.66;;;27.74;100.00
11349;BME280;5729;43.570;27.826;2023-07-02T07:45:18;98313.75;;;27.74;100.00
11349;BME280;5729;43.570;27.826;2023-07-02T07:47:43;98311.00;;;27.80;100.00
11349;BME280;5729;43.570;27.826;2023-07-02T07:50:09;98300.69;;;27.80;100.00
11349;BME280;5729;43.570;27.826;2023-07-02T07:52:38;98297.44;;;27.82;100.00
11349;BME280;5729;43.570;27.826;2023-07-02T07:55:05;98301.88;;;28.05;100.00
11349;BME280;5729;43.570;27.826;2023-07-02T07:57:31;98291.19;;;28.24;100.00
11349;BME280;5729;43.570;27.826;2023-07-02T07:59:57;98292.31;;;28.43;100.00
11349;BME280;5729;43.570;27.826;2023-07-02T08:02:22;98300.22;;;28.62;100.00
11349;BME280;5729;43.570;27.826;2023-07-02T08:04:48;98298.97;;;28.68;100.00
11349;BME280;5729;43.570;27.826;2023-07-02T08:07:14;98298.91;;;28.57;98.52
11349;BME280;5729;43.570;27.826;2023-07-02T08:09:39;98307.03;;;28.66;100.00
11349;BME280;5729;43.570;27.826;2023-07-02T08:12:05;98301.28;;;28.75;99.96
11349;BME280;5729;43.570;27.826;2023-07-02T08:14:31;98319.75;;;28.84;98.69
11349;BME280;5729;43.570;27.826;2023-07-02T08:16:56;98318.47;;;28.85;99.81
11349;BME280;5729;43.570;27.826;2023-07-02T08:19:22;98324.38;;;29.09;97.67
11349;BME280;5729;43.570;27.826;2023-07-02T08:21:47;98317.56;;;29.16;98.64
11349;BME280;5729;43.570;27.826;2023-07-02T08:24:13;98328.66;;;29.16;94.71
11349;BME280;5729;43.570;27.826;2023-07-02T08:26:38;98325.09;;;29.04;95.67
11349;BME280;5729;43.570;27.826;2023-07-02T08:29:04;98323.13;;;29.16;95.70
11349;BME280;5729;43.570;27.826;2023-07-02T08:31:29;98331.97;;;29.25;93.71
11349;BME280;5729;43.570;27.826;2023-07-02T08:33:55;98327.50;;;29.39;90.99
11349;BME280;5729;43.570;27.826;2023-07-02T08:36:20;98340.66;;;29.67;100.00
11349;BME280;5729;43.570;27.826;2023-07-02T08:38:46;98324.97;;;29.91;89.00
11349;BME280;5729;43.570;27.826;2023-07-02T08:41:12;98330.81;;;29.88;83.62
11349;BME280;5729;43.570;27.826;2023-07-02T08:43:37;98338.88;;;29.86;85.12
11349;BME280;5729;43.570;27.826;2023-07-02T08:46:03;98334.09;;;29.75;79.13
11349;BME280;5729;43.570;27.826;2023-07-02T08:48:29;98323.97;;;29.94;80.34
11349;BME280;5729;43.570;27.826;2023-07-02T08:50:55;98329.78;;;30.30;80.69
11349;BME280;5729;43.570;27.826;2023-07-02T08:53:21;98319.75;;;30.90;78.77
11349;BME280;5729;43.570;27.826;2023-07-02T08:55:55;98309.47;;;31.26;86.61
11349;BME280;5729;43.570;27.826;2023-07-02T08:58:21;98315.88;;;32.17;72.04
11349;BME280;5729;43.570;27.826;2023-07-02T09:01:06;98305.81;;;32.57;64.94
11349;BME280;5729;43.570;27.826;2023-07-02T09:03:32;98317.91;;;32.40;66.03
11349;BME280;5729;43.570;27.826;2023-07-02T09:05:58;98292.28;;;32.18;62.99
11349;BME280;5729;43.570;27.826;2023-07-02T09:08:25;98300.50;;;32.34;68.51
11349;BME280;5729;43.570;27.826;2023-07-02T09:10:50;98324.06;;;32.58;64.73
11349;BME280;5729;43.570;27.826;2023-07-02T09:13:16;98321.16;;;32.69;67.83
11349;BME280;5729;43.570;27.826;2023-07-02T09:15:42;98312.16;;;33.00;72.86
11349;BME280;5729;43.570;27.826;2023-07-02T09:18:18;98314.31;;;33.07;72.43
11349;BME280;5729;43.570;27.826;2023-07-02T09:20:44;98306.38;;;32.74;81.56
11349;BME280;5729;43.570;27.826;2023-07-02T09:23:09;98315.66;;;33.25;81.81
11349;BME280;5729;43.570;27.826;2023-07-02T09:25:39;98313.44;;;33.69;76.85
11349;BME280;5729;43.570;27.826;2023-07-02T09:30:54;98311.88;;;33.73;76.69
11349;BME280;5729;43.570;27.826;2023-07-02T09:33:20;98314.22;;;33.69;71.36
11349;BME280;5729;43.570;27.826;2023-07-02T09:35:47;98312.34;;;33.59;73.92
11349;BME280;5729;43.570;27.826;2023-07-02T09:38:13;98307.56;;;33.72;72.34
11349;BME280;5729;43.570;27.826;2023-07-02T09:40:45;98307.44;;;34.23;88.78
11349;BME280;5729;43.570;27.826;2023-07-02T09:43:12;98312.56;;;34.64;63.00
11349;BME280;5729;43.570;27.826;2023-07-02T09:45:38;98316.06;;;35.04;61.74
11349;BME280;5729;43.570;27.826;2023-07-02T09:48:07;98309.66;;;35.17;57.33
11349;BME280;5729;43.570;27.826;2023-07-02T09:50:33;98301.81;;;35.49;53.60
11349;BME280;5729;43.570;27.826;2023-07-02T09:53:00;98304.78;;;35.85;55.32
11349;BME280;5729;43.570;27.826;2023-07-02T09:55:26;98292.50;;;36.17;52.47
11349;BME280;5729;43.570;27.826;2023-07-02T09:57:51;98289.28;;;36.13;55.79
11349;BME280;5729;43.570;27.826;2023-07-02T10:00:17;98296.25;;;36.48;52.71
11349;BME280;5729;43.570;27.826;2023-07-02T10:02:48;98280.38;;;36.86;53.34
11349;BME280;5729;43.570;27.826;2023-07-02T10:05:25;98290.19;;;37.08;67.90
11349;BME280;5729;43.570;27.826;2023-07-02T10:07:51;98292.88;;;37.29;57.42
11349;BME280;5729;43.570;27.826;2023-07-02T10:10:29;98285.09;;;36.99;47.29
11349;BME280;5729;43.570;27.826;2023-07-02T10:12:55;98264.16;;;37.07;65.93
11349;BME280;5729;43.570;27.826;2023-07-02T10:15:25;98268.91;;;37.28;46.75
11349;BME280;5729;43.570;27.826;2023-07-02T10:17:56;98278.09;;;37.36;64.53
11349;BME280;5729;43.570;27.826;2023-07-02T10:20:34;98273.09;;;37.65;48.79
11349;BME280;5729;43.570;27.826;2023-07-02T10:23:01;98283.59;;;37.72;48.34
11349;BME280;5729;43.570;27.826;2023-07-02T10:25:31;98271.19;;;37.52;46.13
11349;BME280;5729;43.570;27.826;2023-07-02T10:27:57;98277.56;;;37.53;46.16
11349;BME280;5729;43.570;27.826;2023-07-02T10:30:37;98265.53;;;37.22;48.37
11349;BME280;5729;43.570;27.826;2023-07-02T10:33:10;98263.81;;;37.19;55.56
11349;BME280;5729;43.570;27.826;2023-07-02T10:35:36;98276.97;;;37.24;56.57
11349;BME280;5729;43.570;27.826;2023-07-02T10:38:02;98269.53;;;36.54;63.64
11349;BME280;5729;43.570;27.826;2023-07-02T10:40:28;98267.25;;;36.45;72.09
11349;BME280;5729;43.570;27.826;2023-07-02T10:42:54;98256.22;;;36.47;58.05
11349;BME280;5729;43.570;27.826;2023-07-02T10:45:20;98259.22;;;36.49;77.76
11349;BME280;5729;43.570;27.826;2023-07-02T10:47:46;98227.13;;;36.65;65.50
11349;BME280;5729;43.570;27.826;2023-07-02T10:50:19;98237.22;;;36.68;62.21
11349;BME280;5729;43.570;27.826;2023-07-02T10:52:46;98256.22;;;36.19;57.65
11349;BME280;5729;43.570;27.826;2023-07-02T10:55:25;98254.94;;;36.20;72.32
11349;BME280;5729;43.570;27.826;2023-07-02T10:58:03;98250.97;;;36.15;66.61
11349;BME280;5729;43.570;27.826;2023-07-02T11:00:29;98241.25;;;35.88;81.14
11349;BME280;5729;43.570;27.826;2023-07-02T11:02:54;98240.34;;;35.93;82.71
11349;BME280;5729;43.570;27.826;2023-07-02T11:05:20;98237.09;;;36.38;100.00
11349;BME280;5729;43.570;27.826;2023-07-02T11:07:45;98233.44;;;37.02;92.09
11349;BME280;5729;43.570;27.826;2023-07-02T11:10:18;98226.59;;;37.56;94.46
11349;BME280;5729;43.570;27.826;2023-07-02T11:12:44;98229.00;;;37.98;66.46
11349;BME280;5729;43.570;27.826;2023-07-02T11:15:11;98210.13;;;37.68;56.87
11349;BME280;5729;43.570;27.826;2023-07-02T11:17:37;98216.66;;;37.78;66.70
11349;BME280;5729;43.570;27.826;2023-07-02T11:20:06;98203.34;;;37.86;60.00
11349;BME280;5729;43.570;27.826;2023-07-02T11:22:34;98215.50;;;37.96;57.42
11349;BME280;5729;43.570;27.826;2023-07-02T11:25:17;98229.41;;;37.79;55.58
11349;BME280;5729;43.570;27.826;2023-07-02T11:27:44;98232.03;;;37.77;65.85
11349;BME280;5729;43.570;27.826;2023-07-02T11:30:10;98225.06;;;37.25;60.36
11349;BME280;5729;43.570;27.826;2023-07-02T11:32:53;98230.03;;;36.45;91.23
11349;BME280;5729;43.570;27.826;2023-07-02T11:35:20;98226.69;;;36.54;62.46
11349;BME280;5729;43.570;27.826;2023-07-02T11:37:46;98221.94;;;36.77;61.39
11349;BME280;5729;43.570;27.826;2023-07-02T11:40:13;98216.66;;;36.30;62.60
11349;BME280;5729;43.570;27.826;2023-07-02T11:42:39;98223.78;;;36.31;67.36
11349;BME280;5729;43.570;27.826;2023-07-02T11:45:05;98214.94;;;36.63;74.12
11349;BME280;5729;43.570;27.826;2023-07-02T11:47:31;98214.88;;;37.14;83.21
11349;BME280;5729;43.570;27.826;2023-07-02T11:49:56;98206.13;;;37.25;58.50
11349;BME280;5729;43.570;27.826;2023-07-02T11:52:24;98211.56;;;37.38;59.35
11349;BME280;5729;43.570;27.826;2023-07-02T11:54:50;98206.28;;;37.12;56.81
11349;BME280;5729;43.570;27.826;2023-07-02T11:57:15;98214.88;;;37.06;64.36
11349;BME280;5729;43.570;27.826;2023-07-02T11:59:41;98213.28;;;37.41;71.53
11349;BME280;5729;43.570;27.826;2023-07-02T12:02:07;98213.84;;;37.63;65.16
11349;BME280;5729;43.570;27.826;2023-07-02T12:04:33;98221.25;;;37.07;62.46
11349;BME280;5729;43.570;27.826;2023-07-02T12:06:59;98221.25;;;36.20;58.97
11349;BME280;5729;43.570;27.826;2023-07-02T12:09:26;98215.56;;;35.55;64.94
11349;BME280;5729;43.570;27.826;2023-07-02T12:11:52;98225.91;;;34.45;69.23
11349;BME280;5729;43.570;27.826;2023-07-02T12:14:18;98231.28;;;33.91;85.52
11349;BME280;5729;43.570;27.826;2023-07-02T12:16:43;98225.47;;;33.75;81.89
11349;BME280;5729;43.570;27.826;2023-07-02T12:19:09;98226.97;;;33.76;86.14
11349;BME280;5729;43.570;27.826;2023-07-02T12:21:35;98218.19;;;33.85;100.00
11349;BME280;5729;43.570;27.826;2023-07-02T12:24:00;98221.63;;;34.18;99.77
11349;BME280;5729;43.570;27.826;2023-07-02T12:26:26;98214.41;;;34.22;100.00
11349;BME280;5729;43.570;27.826;2023-07-02T12:28:54;98218.25;;;34.59;83.07
11349;BME280;5729;43.570;27.826;2023-07-02T12:31:19;98213.97;;;34.58;81.16
11349;BME280;5729;43.570;27.826;2023-07-02T12:33:45;98213.50;;;34.67;90.96
11349;BME280;5729;43.570;27.826;2023-07-02T12:36:10;98212.75;;;34.67;74.50
11349;BME280;5729;43.570;27.826;2023-07-02T12:38:36;98205.28;;;34.35;79.06
11349;BME280;5729;43.570;27.826;2023-07-02T12:41:01;98207.75;;;33.99;78.09
11349;BME280;5729;43.570;27.826;2023-07-02T12:43:27;98200.91;;;33.68;80.92
11349;BME280;5729;43.570;27.826;2023-07-02T12:45:53;98197.16;;;33.66;100.00
11349;BME280;5729;43.570;27.826;2023-07-02T12:48:18;98202.06;;;33.92;100.00
11349;BME280;5729;43.570;27.826;2023-07-02T12:50:56;98196.13;;;34.21;100.00